Pagrindinis puslapis
METAR-TAF:

METAR-TAF

Oro uostai :

Laoag, Filipinai

platuma: 18-11N, ilguma: 120-32E, Aukštis: 4 m

Dabartinis oras

Ataskaita buvo paskelbta 2 valandos ir 56 minutes, ne 18:00 UTC
Vėjas 2 kt nuo kintamojo kryptimis
Temperatūra 24°C
Drėgmė 100%
Slėgis 1005 hPa
Matomumas 10 km arba daugiau
Mažai debesys ne aukštis 1800 ft
Apsiniaukę ne aukštis 9000 ft

METAR: RPLI 201800Z VRB02KT 9999 FEW018 OVC090 24/24 Q1005 NOSIG RMK A2968

Laikas: 04:56 (20:56 UTC)

Prognozė

Ataskaita buvo paskelbta 3 valandos ir 56 minutes, ne 17:00 UTC
Prognozė galioja nuo 20 metu 18 UTC su 21 metu 18 UTC
Vėjas 6 kt iš Vakarų/Pietvakarių
Matomumas 10 km arba daugiau
Mažai debesys ne aukštis 1800 ft
Su prošvaistėmis ne aukštis 10000 ft
Laikinai
nuo 20 metu 18 UTC su 20 metu 24 UTC
Vėjas 3 kt iš Vakarų/Šiaurės Vakarų
Matomumas: 8000 m
Išsisklaidę debesys ne aukštis 1800 ft
Apsiniaukę ne aukštis 9000 ft
lietus

TAF: RPLI 201700Z 2018/2118 24006KT 9999 FEW018 BKN100 TEMPO 2018/2024 30003KT 8000 -RA SCT018 OVC090

Orai ataskaitas ir orų prognozės (METAR, TAF).

turimą stotys yra geltonos ir raudonos taškus žemėlapyje.

Perkelti pele per norėdami pamatyti stoties vardą.

Tada spustelėkite, norėdami matyti oro stebėjimo ir prognozės.

Norėdami pakeisti žemėlapį: spustelėkite ant žalios mygtukų su juodo kryžiaus žemyn,; žalią mygtuką su brūkšneliu, jei norite nutolinti; arba žalių rodyklių gretimoms žemėlapius.


METAR-TAF: